Time;durP1;ratioP1;P1;durP2;ratioP2;P2;SDS_P1;SDS_P2;PMS_P1;PMS_P2;Temp;Humidity;BMP_temperature;BMP_pressure;BME280_temperature;BME280_humidity;BME280_pressure;Samples;Min_cycle;Max_cycle;Signal;HPM_P1;HPM_P2
2023/04/03 00:01:31;;;;;;;0.25;0.25;;;;;;;4.27;79.93;102589.03;5005766;28;20030;-53
2023/04/03 00:03:56;;;;;;;1.00;0.40;;;;;;;4.23;79.83;102587.13;5008405;28;20037;-50
2023/04/03 00:06:23;;;;;;;0.30;0.30;;;;;;;4.19;80.48;102592.19;5008343;28;20519;-54
2023/04/03 00:08:49;;;;;;;12.00;0.80;;;;;;;4.17;80.48;102590.84;5005448;28;20042;-51
2023/04/03 00:11:15;;;;;;;4.25;0.50;;;;;;;4.24;80.47;102586.88;5009112;28;20029;-55
2023/04/03 00:13:41;;;;;;;0.40;0.40;;;;;;;4.11;80.64;102582.03;5018380;28;20388;-50
2023/04/03 00:16:11;;;;;;;0.95;0.40;;;;;;;4.12;80.86;102583.63;5014103;28;20045;-47
2023/04/03 00:18:38;;;;;;;0.57;0.57;;;;;;;4.18;80.57;102592.47;5011362;28;20457;-47
2023/04/03 00:21:04;;;;;;;0.30;0.30;;;;;;;4.07;80.97;102586.31;5012598;28;20038;-54
2023/04/03 00:23:29;;;;;;;0.30;0.30;;;;;;;4.08;80.65;102592.44;5016296;28;20047;-56
2023/04/03 00:25:55;;;;;;;1.20;1.02;;;;;;;3.99;81.10;102586.81;5010812;28;20045;-54
2023/04/03 00:28:21;;;;;;;0.70;0.47;;;;;;;3.91;81.65;102586.53;4998357;28;20037;-49
2023/04/03 00:30:51;;;;;;;0.50;0.50;;;;;;;3.95;81.22;102588.38;5008467;28;20045;-52
2023/04/03 00:33:17;;;;;;;0.20;0.20;;;;;;;3.88;81.86;102600.34;5015133;28;20498;-51
2023/04/03 00:35:43;;;;;;;0.40;0.40;;;;;;;3.85;81.88;102595.56;5011074;28;20034;-54
2023/04/03 00:38:09;;;;;;;0.20;0.20;;;;;;;3.82;81.83;102596.88;5012667;28;20456;-59
2023/04/03 00:40:42;;;;;;;6.82;0.60;;;;;;;3.89;81.71;102594.00;4999560;28;20427;-53
2023/04/03 00:43:22;;;;;;;0.57;0.45;;;;;;;3.83;82.30;102600.34;5006233;28;20104;-52
2023/04/03 00:45:49;;;;;;;0.30;0.30;;;;;;;3.73;82.36;102600.31;5011250;28;20033;-48
2023/04/03 00:48:39;;;;;;;0.20;0.20;;;;;;;3.61;82.13;102598.69;5012061;28;20033;-58
2023/04/03 00:51:07;;;;;;;0.30;0.30;;;;;;;3.64;82.83;102597.34;5014011;28;20069;-50
2023/04/03 00:53:41;;;;;;;0.80;0.80;;;;;;;3.67;83.23;102597.63;5011078;28;20105;-58
2023/04/03 00:56:10;;;;;;;0.40;0.40;;;;;;;3.68;82.64;102604.56;5016332;28;20045;-61
2023/04/03 00:58:51;;;;;;;0.55;0.55;;;;;;;3.70;82.93;102606.94;5011126;28;20026;-52
2023/04/03 01:01:21;;;;;;;0.50;0.30;;;;;;;3.63;83.00;102604.53;5017880;28;20037;-50
2023/04/03 01:03:47;;;;;;;0.57;0.57;;;;;;;3.64;83.11;102600.81;5028751;28;20477;-57
2023/04/03 01:06:16;;;;;;;0.47;0.47;;;;;;;3.44;82.93;102603.38;5027403;28;20025;-51
2023/04/03 01:08:44;;;;;;;0.60;0.60;;;;;;;3.44;83.69;102603.38;5015598;28;20026;-50
2023/04/03 01:11:10;;;;;;;0.52;0.52;;;;;;;3.60;83.42;102602.38;4993495;28;20055;-55
2023/04/03 01:13:35;;;;;;;0.30;0.30;;;;;;;3.56;83.09;102601.28;5012333;28;20487;-57
2023/04/03 01:16:24;;;;;;;0.40;0.40;;;;;;;3.58;83.29;102599.19;5012876;28;20034;-57
2023/04/03 01:18:50;;;;;;;1.42;0.60;;;;;;;3.54;83.31;102595.44;4962722;28;20567;-58
2023/04/03 01:21:27;;;;;;;1.35;1.25;;;;;;;3.62;83.24;102599.44;4974407;28;20038;-50
2023/04/03 01:24:16;;;;;;;1.70;0.65;;;;;;;3.56;83.06;102600.53;4990925;28;20058;-50
2023/04/03 01:26:41;;;;;;;0.22;0.22;;;;;;;3.58;83.06;102606.38;4982854;28;20046;-55
2023/04/03 01:29:07;;;;;;;0.40;0.40;;;;;;;3.56;82.71;102606.63;4970943;28;20159;-48
2023/04/03 01:31:35;;;;;;;0.65;0.65;;;;;;;3.54;82.96;102611.41;4967142;28;20393;-62
2023/04/03 01:34:02;;;;;;;0.40;0.40;;;;;;;3.54;82.95;102613.28;4987918;28;20508;-51
2023/04/03 01:36:31;;;;;;;0.20;0.20;;;;;;;3.53;83.08;102604.50;4971003;28;20551;-50
2023/04/03 01:38:59;;;;;;;0.10;0.10;;;;;;;3.54;82.75;102605.31;4971117;28;20404;-49
2023/04/03 01:41:25;;;;;;;0.95;0.52;;;;;;;3.47;82.88;102604.72;4986239;28;20417;-58
2023/04/03 01:43:54;;;;;;;2.20;0.80;;;;;;;3.57;82.64;102602.91;4974323;28;20133;-50
2023/04/03 01:46:21;;;;;;;0.30;0.30;;;;;;;3.47;82.92;102602.06;4991615;28;20500;-50
2023/04/03 01:48:47;;;;;;;1.40;0.70;;;;;;;3.45;82.90;102612.16;4974305;28;20066;-52
2023/04/03 01:51:12;;;;;;;0.30;0.30;;;;;;;3.43;82.99;102603.63;4974321;28;20638;-50
2023/04/03 01:53:38;;;;;;;0.35;0.35;;;;;;;3.38;82.77;102609.75;4958110;28;20093;-49
2023/04/03 01:56:04;;;;;;;0.85;0.60;;;;;;;3.49;82.67;102600.75;5006687;28;20037;-52
2023/04/03 01:58:31;;;;;;;0.55;0.43;;;;;;;3.46;82.22;102614.59;5015860;28;20091;-52
2023/04/03 02:00:57;;;;;;;1.60;0.70;;;;;;;3.47;82.34;102608.19;5004463;28;20031;-51
2023/04/03 02:03:22;;;;;;;0.20;0.20;;;;;;;3.46;82.31;102606.59;5015569;28;20030;-59
2023/04/03 02:05:48;;;;;;;0.50;0.50;;;;;;;3.38;82.18;102607.09;5016656;28;20680;-53
2023/04/03 02:08:14;;;;;;;4.50;0.38;;;;;;;3.41;82.54;102609.22;5023762;28;20172;-60
2023/04/03 02:10:39;;;;;;;0.25;0.25;;;;;;;3.50;82.44;102612.19;5019035;28;20053;-58
2023/04/03 02:13:05;;;;;;;0.60;0.50;;;;;;;3.42;82.41;102612.69;5021782;28;20105;-49
2023/04/03 02:15:31;;;;;;;0.30;0.30;;;;;;;3.33;82.08;102617.69;5021945;28;20021;-48
2023/04/03 02:17:57;;;;;;;0.45;0.45;;;;;;;3.29;82.98;102618.47;4995050;28;20056;-47
2023/04/03 02:20:22;;;;;;;0.75;0.50;;;;;;;3.30;82.76;102622.72;5011814;28;20022;-50
2023/04/03 02:22:48;;;;;;;0.30;0.30;;;;;;;3.28;82.68;102615.00;5017610;28;20057;-48
2023/04/03 02:25:14;;;;;;;0.20;0.20;;;;;;;3.33;82.62;102611.59;5024053;28;20388;-59
2023/04/03 02:27:40;;;;;;;0.60;0.60;;;;;;;3.08;82.64;102606.88;5018001;28;20034;-48
2023/04/03 02:30:06;;;;;;;0.30;0.30;;;;;;;3.17;83.26;102616.00;5008505;28;20033;-49
2023/04/03 02:32:32;;;;;;;0.85;0.68;;;;;;;3.13;83.33;102622.91;5009884;28;20037;-48
2023/04/03 02:34:57;;;;;;;0.65;0.40;;;;;;;3.12;83.07;102620.47;5010724;28;20037;-47
2023/04/03 02:37:23;;;;;;;0.75;0.65;;;;;;;3.00;83.24;102614.56;5010603;28;20407;-49
2023/04/03 02:39:51;;;;;;;0.43;0.43;;;;;;;3.08;83.61;102617.53;5007306;28;20372;-53
2023/04/03 02:42:16;;;;;;;0.25;0.25;;;;;;;2.97;84.02;102615.03;5009217;28;20034;-53
2023/04/03 02:44:42;;;;;;;0.20;0.20;;;;;;;2.95;83.68;102623.28;5020853;28;20041;-47
2023/04/03 02:47:09;;;;;;;0.60;0.55;;;;;;;3.01;83.84;102613.47;5013475;28;20033;-57
2023/04/03 02:49:34;;;;;;;0.40;0.32;;;;;;;2.97;84.29;102621.19;5003199;28;20273;-54
2023/04/03 02:52:00;;;;;;;0.52;0.40;;;;;;;3.03;84.03;102628.13;5004823;28;20072;-55
2023/04/03 02:54:28;;;;;;;0.40;0.40;;;;;;;3.03;83.79;102624.66;5002907;28;20022;-60
2023/04/03 02:56:55;;;;;;;0.73;0.73;;;;;;;2.99;83.17;102626.22;4998831;28;20178;-49
2023/04/03 02:59:21;;;;;;;0.20;0.20;;;;;;;2.98;83.87;102625.44;4998626;28;20037;-47
2023/04/03 03:01:47;;;;;;;0.40;0.40;;;;;;;2.98;83.30;102621.97;5004517;28;20033;-51
2023/04/03 03:04:12;;;;;;;2.47;0.43;;;;;;;2.92;84.00;102623.81;5003906;28;20133;-53
2023/04/03 03:06:38;;;;;;;0.25;0.25;;;;;;;2.91;83.91;102614.22;5009096;28;20034;-54
2023/04/03 03:09:04;;;;;;;0.30;0.30;;;;;;;2.99;83.82;102628.91;5007352;28;20030;-50
2023/04/03 03:11:30;;;;;;;0.85;0.55;;;;;;;3.04;83.63;102620.97;5009279;28;20500;-47
2023/04/03 03:13:55;;;;;;;1.00;0.63;;;;;;;2.91;84.13;102619.53;5021519;28;20046;-48
2023/04/03 03:16:23;;;;;;;0.40;0.40;;;;;;;2.88;84.20;102622.72;5007951;28;20030;-48
2023/04/03 03:18:49;;;;;;;0.70;0.45;;;;;;;2.99;83.85;102629.72;5006647;28;20037;-52
2023/04/03 03:21:14;;;;;;;0.30;0.30;;;;;;;2.91;83.76;102616.88;5008219;28;20503;-53
2023/04/03 03:23:40;;;;;;;0.45;0.45;;;;;;;2.90;84.33;102623.25;5004557;28;20038;-59
2023/04/03 03:26:08;;;;;;;0.43;0.43;;;;;;;2.82;84.31;102618.41;5012004;28;20026;-49
2023/04/03 03:28:36;;;;;;;0.30;0.30;;;;;;;2.71;84.34;102622.00;5002367;28;20117;-47
2023/04/03 03:31:02;;;;;;;0.30;0.30;;;;;;;2.64;84.59;102624.09;5006536;28;20034;-47
2023/04/03 03:33:29;;;;;;;1.25;0.82;;;;;;;2.72;85.11;102621.78;5008396;28;20041;-55
2023/04/03 03:35:55;;;;;;;0.50;0.50;;;;;;;2.85;84.56;102623.19;4999811;28;20029;-56
2023/04/03 03:38:21;;;;;;;0.15;0.15;;;;;;;2.88;84.43;102620.06;5006340;28;20030;-58
2023/04/03 03:40:50;;;;;;;1.55;0.75;;;;;;;2.92;84.18;102617.69;5001086;28;20038;-58
2023/04/03 03:43:19;;;;;;;0.35;0.35;;;;;;;2.87;83.94;102623.75;5011116;28;20033;-47
2023/04/03 03:45:50;;;;;;;0.35;0.35;;;;;;;2.90;84.03;102623.25;5019282;28;20029;-56
2023/04/03 03:48:15;;;;;;;0.30;0.30;;;;;;;2.84;83.99;102621.63;5015872;28;20570;-52
2023/04/03 03:50:41;;;;;;;0.28;0.28;;;;;;;2.77;84.58;102625.53;5005252;28;20066;-57
2023/04/03 03:53:06;;;;;;;0.98;0.63;;;;;;;2.83;84.32;102622.66;5009994;28;20606;-48
2023/04/03 03:55:32;;;;;;;0.50;0.50;;;;;;;2.69;84.50;102626.81;5022392;28;20028;-49
2023/04/03 03:57:58;;;;;;;0.30;0.30;;;;;;;2.71;84.73;102620.16;5011586;28;20040;-51
2023/04/03 04:00:25;;;;;;;0.95;0.50;;;;;;;2.74;84.39;102621.53;5008771;28;20030;-50
2023/04/03 04:02:55;;;;;;;0.60;0.60;;;;;;;2.72;84.34;102628.94;4996370;28;20520;-49
2023/04/03 04:05:22;;;;;;;0.60;0.60;;;;;;;2.64;84.50;102626.75;5001447;28;20435;-50
2023/04/03 04:07:48;;;;;;;0.20;0.20;;;;;;;2.64;84.63;102624.09;5007365;28;20030;-56
2023/04/03 04:10:14;;;;;;;1.13;0.47;;;;;;;2.80;84.66;102628.50;5008503;28;20436;-49
2023/04/03 04:12:40;;;;;;;0.20;0.20;;;;;;;2.73;84.29;102622.56;5004766;28;20117;-55
2023/04/03 04:15:07;;;;;;;0.20;0.20;;;;;;;2.66;84.75;102627.31;5010428;28;20029;-56
2023/04/03 04:17:34;;;;;;;0.35;0.35;;;;;;;2.67;84.61;102631.59;5009728;28;20033;-53
2023/04/03 04:20:01;;;;;;;0.50;0.50;;;;;;;2.72;84.92;102628.94;5011043;28;20030;-56
2023/04/03 04:22:26;;;;;;;0.30;0.30;;;;;;;2.72;84.54;102623.63;5007581;28;20507;-52
2023/04/03 04:24:52;;;;;;;0.45;0.45;;;;;;;2.61;85.00;102635.25;5010867;28;20515;-56
2023/04/03 04:27:18;;;;;;;0.30;0.30;;;;;;;2.51;85.19;102629.81;5011834;28;20034;-56
2023/04/03 04:29:44;;;;;;;0.30;0.30;;;;;;;2.55;84.93;102623.75;5008017;28;20500;-54
2023/04/03 04:32:09;;;;;;;0.43;0.43;;;;;;;2.54;84.73;102619.47;5010297;28;20072;-56
2023/04/03 04:34:35;;;;;;;0.60;0.60;;;;;;;2.66;84.89;102629.97;5008637;28;20060;-56
2023/04/03 04:37:01;;;;;;;0.25;0.25;;;;;;;2.59;84.64;102632.81;4989621;28;20049;-57
2023/04/03 04:39:27;;;;;;;0.50;0.50;;;;;;;2.59;84.82;102638.13;4991544;28;20057;-53
2023/04/03 04:41:55;;;;;;;0.30;0.30;;;;;;;2.59;84.65;102637.34;5006288;28;20517;-55
2023/04/03 04:44:21;;;;;;;0.30;0.30;;;;;;;2.55;84.43;102644.22;4998853;28;20023;-55
2023/04/03 04:46:47;;;;;;;0.98;0.98;;;;;;;2.44;84.93;102645.97;5003906;28;20034;-54
2023/04/03 04:49:12;;;;;;;0.38;0.38;;;;;;;2.45;84.51;102649.44;4992812;28;20030;-52
2023/04/03 04:51:38;;;;;;;0.20;0.20;;;;;;;2.53;84.31;102656.97;4997326;28;20032;-52
2023/04/03 04:54:04;;;;;;;0.20;0.20;;;;;;;2.48;84.25;102660.38;4992273;28;20036;-54
2023/04/03 04:56:31;;;;;;;0.32;0.32;;;;;;;2.51;84.29;102667.03;4997722;28;20038;-56
2023/04/03 04:58:58;;;;;;;0.28;0.28;;;;;;;2.54;84.16;102663.88;4982146;28;20522;-53
2023/04/03 05:01:25;;;;;;;0.50;0.50;;;;;;;2.47;84.13;102663.28;4984519;28;20420;-57
2023/04/03 05:03:57;;;;;;;1.27;0.68;;;;;;;2.46;84.74;102670.44;4999759;28;20034;-57
2023/04/03 05:06:23;;;;;;;0.30;0.30;;;;;;;2.46;84.50;102662.47;4999279;28;20060;-53
2023/04/03 05:08:49;;;;;;;0.38;0.38;;;;;;;2.44;85.16;102663.78;5000136;28;20065;-56
2023/04/03 05:11:15;;;;;;;0.85;0.40;;;;;;;2.52;84.73;102671.28;5010847;28;20037;-54
2023/04/03 05:13:43;;;;;;;1.30;0.77;;;;;;;2.44;84.67;102666.44;5008608;28;20103;-57
2023/04/03 05:16:08;;;;;;;0.52;0.45;;;;;;;2.40;85.29;102666.13;4999269;28;20034;-57
2023/04/03 05:18:35;;;;;;;0.40;0.40;;;;;;;2.35;85.74;102679.38;4992812;28;20033;-56
2023/04/03 05:21:05;;;;;;;0.60;0.60;;;;;;;2.39;85.63;102677.00;4961119;28;20424;-57
2023/04/03 05:23:31;;;;;;;0.30;0.30;;;;;;;2.48;85.58;102678.16;4986487;28;20073;-57
2023/04/03 05:25:59;;;;;;;0.70;0.60;;;;;;;2.40;85.92;102674.09;4998704;28;20125;-55
2023/04/03 05:28:25;;;;;;;0.63;0.63;;;;;;;2.48;86.31;102680.81;4988706;28;20091;-57
2023/04/03 05:30:54;;;;;;;0.60;0.60;;;;;;;2.48;86.33;102680.81;5000252;28;20492;-56
2023/04/03 05:33:20;;;;;;;0.43;0.43;;;;;;;2.57;86.04;102682.00;4979038;28;20042;-56
2023/04/03 05:35:50;;;;;;;0.50;0.50;;;;;;;2.63;85.75;102686.31;4990339;28;20121;-56
2023/04/03 05:38:20;;;;;;;1.45;1.20;;;;;;;2.49;86.13;102685.09;4997768;28;20034;-58
2023/04/03 05:40:46;;;;;;;0.57;0.57;;;;;;;2.58;86.09;102695.03;5004303;28;20045;-58
2023/04/03 05:43:12;;;;;;;0.68;0.68;;;;;;;2.56;86.35;102701.66;4983826;28;20133;-53
2023/04/03 05:45:40;;;;;;;0.40;0.40;;;;;;;2.56;86.53;102706.97;4993244;28;20029;-53
2023/04/03 05:48:05;;;;;;;0.75;0.75;;;;;;;2.72;86.57;102703.41;4991792;28;20026;-55
2023/04/03 05:50:31;;;;;;;0.65;0.65;;;;;;;2.77;85.85;102698.13;5007341;28;20030;-57
2023/04/03 05:52:59;;;;;;;0.50;0.50;;;;;;;2.86;86.30;102704.63;4994838;28;20060;-57
2023/04/03 05:55:26;;;;;;;0.60;0.60;;;;;;;2.98;86.00;102707.91;5008037;28;20362;-58
2023/04/03 05:57:52;;;;;;;0.40;0.28;;;;;;;3.09;85.65;102706.94;5008481;28;20041;-53
2023/04/03 06:00:18;;;;;;;0.30;0.30;;;;;;;3.20;85.19;102708.63;5010393;28;20026;-55
2023/04/03 06:02:53;;;;;;;0.60;0.47;;;;;;;3.29;84.78;102706.31;5005833;28;20022;-59
2023/04/03 06:05:22;;;;;;;0.40;0.40;;;;;;;3.34;84.59;102715.13;4995688;28;20030;-56
2023/04/03 06:07:49;;;;;;;0.35;0.35;;;;;;;3.31;84.89;102704.97;4986106;28;20035;-57
2023/04/03 06:10:15;;;;;;;0.95;0.82;;;;;;;3.35;84.82;102694.63;4992504;28;20030;-57
2023/04/03 06:12:41;;;;;;;1.10;0.60;;;;;;;3.40;84.66;102714.13;4991443;28;20141;-57
2023/04/03 06:15:09;;;;;;;0.47;0.47;;;;;;;3.51;84.77;102709.66;4996482;28;20033;-58
2023/04/03 06:17:35;;;;;;;0.82;0.80;;;;;;;3.60;84.60;102714.25;4995258;28;20022;-56
2023/04/03 06:20:01;;;;;;;0.30;0.30;;;;;;;3.67;84.19;102711.38;4992504;28;20645;-59
2023/04/03 06:22:29;;;;;;;1.15;0.63;;;;;;;3.71;84.37;102709.78;4998293;28;20040;-58
2023/04/03 06:24:56;;;;;;;0.60;0.60;;;;;;;3.72;84.21;102710.59;5005886;28;20565;-59
2023/04/03 06:27:21;;;;;;;0.40;0.40;;;;;;;3.71;84.80;102717.78;5011734;28;20076;-57
2023/04/03 06:29:47;;;;;;;0.38;0.38;;;;;;;3.93;84.32;102717.66;5009821;28;20061;-57
2023/04/03 06:32:13;;;;;;;0.57;0.57;;;;;;;4.11;83.82;102719.84;5006298;28;20034;-54
2023/04/03 06:34:39;;;;;;;0.40;0.40;;;;;;;4.12;83.50;102726.78;5011421;28;20112;-57
2023/04/03 06:37:05;;;;;;;0.90;0.65;;;;;;;4.26;83.47;102727.91;5003038;28;20033;-58
2023/04/03 06:39:30;;;;;;;0.85;0.68;;;;;;;4.31;83.36;102726.06;5011364;28;20068;-58
2023/04/03 06:41:56;;;;;;;0.38;0.38;;;;;;;4.40;82.27;102723.69;5013924;28;20034;-55
2023/04/03 06:44:35;;;;;;;0.43;0.43;;;;;;;4.59;82.95;102733.63;5008572;28;20025;-56
2023/04/03 06:47:00;;;;;;;0.57;0.57;;;;;;;4.80;82.37;102723.78;5013734;28;20408;-57
2023/04/03 06:49:26;;;;;;;1.17;0.38;;;;;;;5.04;81.80;102726.75;5003711;28;20026;-53
2023/04/03 06:51:51;;;;;;;0.30;0.30;;;;;;;5.24;81.43;102737.47;4990471;28;20389;-57
2023/04/03 06:54:18;;;;;;;0.95;0.60;;;;;;;5.21;79.97;102732.63;5009360;28;20421;-54
2023/04/03 06:56:43;;;;;;;2.28;0.73;;;;;;;5.50;80.06;102750.53;5009343;28;20030;-55
2023/04/03 06:59:12;;;;;;;5.28;0.63;;;;;;;5.81;80.03;102745.13;5003265;28;20037;-57
2023/04/03 07:01:37;;;;;;;0.63;0.50;;;;;;;6.06;79.09;102750.44;5005017;28;20443;-56
2023/04/03 07:04:03;;;;;;;0.52;0.52;;;;;;;6.26;78.60;102753.06;4989367;28;20744;-57
2023/04/03 07:06:28;;;;;;;0.70;0.40;;;;;;;6.44;77.23;102755.13;5000122;28;20080;-55
2023/04/03 07:08:54;;;;;;;0.35;0.35;;;;;;;6.69;76.71;102755.00;5004771;28;20037;-57
2023/04/03 07:11:20;;;;;;;0.60;0.40;;;;;;;6.85;75.60;102753.03;4999479;28;20029;-57
2023/04/03 07:13:48;;;;;;;0.43;0.43;;;;;;;7.04;75.12;102754.78;5003304;28;20112;-56
2023/04/03 07:16:14;;;;;;;0.30;0.30;;;;;;;7.24;74.15;102757.28;5010790;28;20480;-56
2023/04/03 07:18:39;;;;;;;0.40;0.40;;;;;;;7.42;73.46;102763.84;5024925;28;20044;-56
2023/04/03 07:21:05;;;;;;;0.38;0.38;;;;;;;7.50;72.53;102757.91;5028835;28;20116;-57
2023/04/03 07:23:31;;;;;;;0.65;0.60;;;;;;;7.70;71.71;102760.41;5001462;28;20022;-55
2023/04/03 07:25:56;;;;;;;0.40;0.40;;;;;;;7.91;71.16;102764.47;5015828;28;20395;-51
2023/04/03 07:28:22;;;;;;;0.30;0.30;;;;;;;7.96;69.12;102766.28;5022982;28;20049;-55
2023/04/03 07:30:53;;;;;;;0.47;0.43;;;;;;;8.11;67.11;102766.91;5005824;28;20040;-57
2023/04/03 07:33:21;;;;;;;0.60;0.60;;;;;;;8.37;66.70;102764.78;5013826;28;20034;-53
2023/04/03 07:35:47;;;;;;;0.30;0.30;;;;;;;8.59;65.56;102765.03;5020941;28;20084;-57
2023/04/03 07:38:12;;;;;;;0.65;0.47;;;;;;;8.66;64.14;102772.72;5013423;28;20084;-55
2023/04/03 07:40:38;;;;;;;1.85;0.52;;;;;;;8.69;62.82;102762.19;5000776;28;20034;-56
2023/04/03 07:43:05;;;;;;;0.50;0.50;;;;;;;8.93;61.59;102762.94;4996180;28;20034;-56
2023/04/03 07:45:31;;;;;;;0.40;0.30;;;;;;;9.07;58.82;102765.69;4984204;28;20484;-56
2023/04/03 07:47:56;;;;;;;0.17;0.17;;;;;;;9.18;58.57;102766.31;5004198;28;20073;-56
2023/04/03 07:50:22;;;;;;;0.10;0.10;;;;;;;9.35;57.12;102763.91;5015261;23;20048;-55
2023/04/03 07:52:48;;;;;;;0.10;0.10;;;;;;;9.48;56.99;102774.72;5003735;28;20034;-54
2023/04/03 07:55:14;;;;;;;0.25;0.20;;;;;;;9.68;54.44;102776.22;5013734;28;20112;-48
2023/04/03 07:57:41;;;;;;;0.35;0.35;;;;;;;9.74;54.20;102775.06;5015572;28;20542;-51
2023/04/03 08:00:08;;;;;;;0.40;0.40;;;;;;;9.88;53.55;102768.59;5010552;28;20502;-47
2023/04/03 08:02:40;;;;;;;0.20;0.20;;;;;;;9.95;52.89;102766.31;5006694;28;20026;-48
2023/04/03 08:05:06;;;;;;;0.20;0.20;;;;;;;10.12;52.69;102771.16;4998596;28;20034;-54
2023/04/03 08:07:31;;;;;;;2.53;0.20;;;;;;;10.27;52.20;102772.75;5003179;28;20030;-53
2023/04/03 08:09:57;;;;;;;0.15;0.15;;;;;;;10.28;51.03;102777.81;5004458;28;20706;-53
2023/04/03 08:12:22;;;;;;;0.10;0.10;;;;;;;10.39;50.15;102776.53;5000744;28;20104;-51
2023/04/03 08:14:48;;;;;;;0.10;0.10;;;;;;;10.55;50.60;102775.09;4999494;28;20021;-53
2023/04/03 08:17:13;;;;;;;2.40;0.15;;;;;;;10.71;48.99;102779.06;5008703;28;20116;-49
2023/04/03 08:19:39;;;;;;;0.10;0.10;;;;;;;10.80;49.01;102777.25;5005036;28;20030;-50
2023/04/03 08:22:06;;;;;;;0.10;0.10;;;;;;;10.95;49.43;102772.63;5009685;28;20044;-48
2023/04/03 08:24:33;;;;;;;0.45;0.20;;;;;;;11.19;47.84;102771.22;5003437;28;20042;-50
2023/04/03 08:26:59;;;;;;;0.22;0.22;;;;;;;11.13;46.89;102774.38;5009537;28;20120;-53
2023/04/03 08:29:25;;;;;;;0.20;0.20;;;;;;;11.19;46.65;102775.84;5008872;28;20081;-49
2023/04/03 08:31:51;;;;;;;0.17;0.17;;;;;;;11.36;47.35;102768.63;5007203;28;20033;-49
2023/04/03 08:34:17;;;;;;;0.15;0.15;;;;;;;11.46;46.64;102762.19;5007468;28;20451;-51
2023/04/03 08:36:46;;;;;;;0.10;0.10;;;;;;;11.44;45.24;102762.50;5001958;28;20042;-48
2023/04/03 08:39:12;;;;;;;0.10;0.10;;;;;;;11.49;46.39;102761.59;5009619;28;20030;-48
2023/04/03 08:41:42;;;;;;;0.05;0.05;;;;;;;11.35;45.47;102758.97;5025099;28;20031;-50
2023/04/03 08:44:29;;;;;;;0.00;0.00;;;;;;;11.82;43.32;102764.81;5010934;28;20053;-52
2023/04/03 08:47:20;;;;;;;0.00;0.00;;;;;;;12.00;43.65;102766.50;5017710;28;20045;-55
2023/04/03 08:49:53;;;;;;;0.05;0.05;;;;;;;12.16;39.32;102768.44;5016765;28;20390;-48
2023/04/03 08:52:26;;;;;;;0.05;0.03;;;;;;;12.27;39.74;102761.63;5017510;28;20507;-49
2023/04/03 08:54:55;;;;;;;0.05;0.05;;;;;;;12.26;38.76;102762.75;5016497;28;20052;-54
2023/04/03 08:57:35;;;;;;;0.00;0.00;;;;;;;12.52;38.50;102771.72;5019693;28;20044;-48
2023/04/03 09:00:06;;;;;;;0.10;0.10;;;;;;;12.60;38.70;102765.53;5015196;28;20456;-53
2023/04/03 09:02:40;;;;;;;0.13;0.08;;;;;;;12.77;38.55;102763.97;5008739;28;20523;-53
2023/04/03 09:05:18;;;;;;;0.32;0.10;;;;;;;13.07;39.21;102773.84;4999684;28;20038;-48
2023/04/03 09:08:17;;;;;;;0.22;0.22;;;;;;;13.18;39.56;102770.50;5003971;28;20401;-53
2023/04/03 09:10:42;;;;;;;0.13;0.13;;;;;;;12.88;38.04;102760.63;5005970;28;20369;-50
2023/04/03 09:13:36;;;;;;;0.60;0.10;;;;;;;13.17;39.04;102757.31;5027229;28;20056;-57
2023/04/03 09:16:04;;;;;;;1.92;0.10;;;;;;;13.13;37.63;102754.44;5012500;28;20033;-50
2023/04/03 09:18:39;;;;;;;0.10;0.00;;;;;;;13.53;38.09;102753.09;5019765;28;20499;-53
2023/04/03 09:21:24;;;;;;;0.03;0.03;;;;;;;13.74;36.81;102761.34;5011531;28;20032;-54
2023/04/03 09:23:55;;;;;;;0.25;0.10;;;;;;;13.76;36.26;102752.88;5003563;28;20499;-55
2023/04/03 09:26:40;;;;;;;0.20;0.15;;;;;;;14.04;37.00;102760.25;5012276;28;20044;-52
2023/04/03 09:29:08;;;;;;;0.00;0.00;;;;;;;14.28;36.67;102765.91;5002710;28;20516;-48
2023/04/03 09:31:39;;;;;;;0.10;0.10;;;;;;;13.83;36.47;102759.38;5004039;28;20034;-48
2023/04/03 09:34:17;;;;;;;0.10;0.10;;;;;;;14.04;37.58;102762.16;4997934;28;20177;-48
2023/04/03 09:36:49;;;;;;;0.20;0.08;;;;;;;14.35;36.91;102762.66;5000871;28;20531;-51
2023/04/03 09:39:18;;;;;;;0.20;0.20;;;;;;;14.39;36.03;102758.16;5009372;28;20507;-53
2023/04/03 09:42:03;;;;;;;0.17;0.10;;;;;;;14.48;36.45;102761.63;5008745;28;20511;-49
2023/04/03 09:44:35;;;;;;;0.10;0.00;;;;;;;14.41;35.86;102766.78;5005378;28;20722;-48
2023/04/03 09:47:33;;;;;;;0.00;0.00;;;;;;;14.68;37.33;102758.13;5005006;28;20038;-48
2023/04/03 09:50:14;;;;;;;0.00;0.00;;;;;;;14.84;36.93;102755.63;4999469;28;20537;-61
2023/04/03 09:52:42;;;;;;;0.10;0.10;;;;;;;14.69;35.71;102753.50;5005964;28;20057;-55
2023/04/03 09:55:17;;;;;;;0.22;0.10;;;;;;;14.77;36.52;102748.00;4994849;28;20026;-49
2023/04/03 09:57:53;;;;;;;0.47;0.17;;;;;;;14.74;35.56;102745.97;5014146;28;20014;-51
2023/04/03 10:00:26;;;;;;;0.10;0.10;;;;;;;15.09;35.17;102746.47;4994823;28;20026;-53
2023/04/03 10:02:58;;;;;;;2.65;0.10;;;;;;;15.00;35.47;102743.06;5008560;28;20068;-55
2023/04/03 10:05:39;;;;;;;0.22;0.00;;;;;;;14.90;37.21;102738.81;5003526;28;20042;-53
2023/04/03 10:08:08;;;;;;;0.00;0.00;;;;;;;14.81;37.15;102738.09;5020168;28;20034;-53
2023/04/03 10:10:33;;;;;;;0.17;0.10;;;;;;;14.57;35.85;102721.69;5008465;28;20034;-51
2023/04/03 10:13:20;;;;;;;0.00;0.00;;;;;;;14.28;37.51;102722.53;4996655;28;20476;-54
2023/04/03 10:16:02;;;;;;;0.40;0.20;;;;;;;14.31;37.56;102727.28;5000896;28;20490;-47
2023/04/03 10:18:42;;;;;;;0.10;0.10;;;;;;;14.52;37.22;102726.53;5000903;28;20485;-47
2023/04/03 10:21:17;;;;;;;0.85;0.20;;;;;;;14.95;36.95;102721.53;5007438;28;20041;-49
2023/04/03 10:23:50;;;;;;;0.00;0.00;;;;;;;14.78;36.82;102732.53;5015385;28;20053;-49
2023/04/03 10:26:48;;;;;;;0.00;0.00;;;;;;;14.91;37.07;102734.97;5025162;28;20036;-53
2023/04/03 10:29:49;;;;;;;0.25;0.08;;;;;;;14.44;37.18;102720.81;5008937;28;20100;-51
2023/04/03 10:32:36;;;;;;;0.20;0.10;;;;;;;14.58;36.81;102719.75;5000291;28;20045;-45
2023/04/03 10:35:12;;;;;;;0.00;0.00;;;;;;;14.74;37.04;102720.75;5006759;28;20136;-45
2023/04/03 10:37:49;;;;;;;0.10;0.10;;;;;;;14.34;36.97;102715.00;5018131;28;20069;-54
2023/04/03 10:40:32;;;;;;;0.25;0.10;;;;;;;13.70;38.17;102714.34;5012618;28;20579;-53
2023/04/03 10:43:06;;;;;;;0.15;0.08;;;;;;;13.38;38.81;102709.50;5016210;28;20093;-45
2023/04/03 10:45:57;;;;;;;0.00;0.00;;;;;;;13.08;39.15;102711.34;5018273;28;20400;-51
2023/04/03 10:48:22;;;;;;;0.20;0.03;;;;;;;12.86;39.56;102702.56;5006683;28;20503;-47
2023/04/03 10:50:53;;;;;;;0.73;0.10;;;;;;;12.81;39.58;102711.66;5008169;28;20030;-47
2023/04/03 10:53:46;;;;;;;0.10;0.10;;;;;;;12.80;39.64;102703.84;5010262;28;20029;-47
2023/04/03 10:56:18;;;;;;;0.00;0.00;;;;;;;12.92;40.36;102695.88;5026169;28;20183;-45
2023/04/03 10:59:17;;;;;;;0.03;0.00;;;;;;;13.31;39.11;102696.50;4994929;28;20068;-46
2023/04/03 11:01:48;;;;;;;0.08;0.08;;;;;;;13.51;39.93;102687.66;4975940;28;20048;-59
2023/04/03 11:04:17;;;;;;;1.05;0.08;;;;;;;13.66;39.67;102690.94;5003002;28;20046;-54
2023/04/03 11:06:54;;;;;;;0.30;0.20;;;;;;;13.56;39.57;102683.97;5010314;28;20061;-50
2023/04/03 11:09:27;;;;;;;0.28;0.10;;;;;;;13.10;38.95;102678.56;5009255;28;20172;-49
2023/04/03 11:12:00;;;;;;;0.05;0.03;;;;;;;13.28;40.25;102670.06;4999482;28;20504;-52
2023/04/03 11:14:30;;;;;;;0.05;0.05;;;;;;;13.20;40.48;102675.50;5012864;28;20042;-53
2023/04/03 11:17:11;;;;;;;0.30;0.20;;;;;;;13.17;39.46;102668.81;5010929;28;20033;-52
2023/04/03 11:19:49;;;;;;;0.10;0.10;;;;;;;13.11;39.27;102667.41;5002473;28;20061;-52
2023/04/03 11:22:26;;;;;;;0.05;0.05;;;;;;;13.19;39.48;102663.09;5012908;28;20109;-53
2023/04/03 11:25:12;;;;;;;0.00;0.00;;;;;;;13.03;39.23;102664.66;4995001;28;20409;-50
2023/04/03 11:27:49;;;;;;;1.85;0.10;;;;;;;13.06;40.30;102653.25;5004343;28;20049;-50
2023/04/03 11:30:18;;;;;;;0.10;0.10;;;;;;;12.83;39.75;102659.94;5000291;28;20038;-51
2023/04/03 11:33:01;;;;;;;0.52;0.52;;;;;;;13.26;39.98;102649.84;4996637;28;20105;-52
2023/04/03 11:35:28;;;;;;;0.20;0.15;;;;;;;13.26;39.17;102657.97;5007053;28;20033;-51
2023/04/03 11:37:54;;;;;;;0.00;0.00;;;;;;;13.35;39.93;102662.25;5005577;28;20042;-49
2023/04/03 11:40:29;;;;;;;0.10;0.10;;;;;;;13.39;40.32;102665.09;5010336;28;20618;-48
2023/04/03 11:43:04;;;;;;;0.10;0.10;;;;;;;13.44;38.70;102660.31;5026600;28;20038;-48